sensor_id;sensor_type;location;lat;lon;timestamp;P1;durP1;ratioP1;P2;durP2;ratioP2
32323;SDS011;25666;44.350;9.222;2023-03-26T00:01:00;17.88;;;4.70;;
32323;SDS011;25666;44.350;9.222;2023-03-26T00:03:30;17.95;;;4.93;;
32323;SDS011;25666;44.350;9.222;2023-03-26T00:06:04;14.88;;;5.38;;
32323;SDS011;25666;44.350;9.222;2023-03-26T00:08:36;15.52;;;5.13;;
32323;SDS011;25666;44.350;9.222;2023-03-26T00:11:02;14.50;;;4.60;;
32323;SDS011;25666;44.350;9.222;2023-03-26T00:13:29;18.60;;;5.00;;
32323;SDS011;25666;44.350;9.222;2023-03-26T00:15:54;18.73;;;5.63;;
32323;SDS011;25666;44.350;9.222;2023-03-26T00:18:20;13.18;;;4.82;;
32323;SDS011;25666;44.350;9.222;2023-03-26T00:20:48;21.25;;;5.07;;
32323;SDS011;25666;44.350;9.222;2023-03-26T00:23:15;18.13;;;4.88;;
32323;SDS011;25666;44.350;9.222;2023-03-26T00:25:40;15.50;;;4.15;;
32323;SDS011;25666;44.350;9.222;2023-03-26T00:28:07;22.67;;;5.53;;
32323;SDS011;25666;44.350;9.222;2023-03-26T00:30:34;10.90;;;3.90;;
32323;SDS011;25666;44.350;9.222;2023-03-26T00:33:00;11.75;;;3.85;;
32323;SDS011;25666;44.350;9.222;2023-03-26T00:35:26;15.40;;;4.72;;
32323;SDS011;25666;44.350;9.222;2023-03-26T00:37:53;20.13;;;4.25;;
32323;SDS011;25666;44.350;9.222;2023-03-26T00:40:19;19.25;;;5.80;;
32323;SDS011;25666;44.350;9.222;2023-03-26T00:42:48;20.33;;;5.35;;
32323;SDS011;25666;44.350;9.222;2023-03-26T00:45:14;16.30;;;4.78;;
32323;SDS011;25666;44.350;9.222;2023-03-26T00:47:45;14.48;;;5.20;;
32323;SDS011;25666;44.350;9.222;2023-03-26T00:50:11;13.73;;;5.43;;
32323;SDS011;25666;44.350;9.222;2023-03-26T00:52:41;15.73;;;5.90;;
32323;SDS011;25666;44.350;9.222;2023-03-26T00:55:08;28.17;;;6.30;;
32323;SDS011;25666;44.350;9.222;2023-03-26T00:57:37;22.58;;;4.95;;
32323;SDS011;25666;44.350;9.222;2023-03-26T01:00:06;12.55;;;4.53;;
32323;SDS011;25666;44.350;9.222;2023-03-26T01:02:38;19.40;;;6.07;;
32323;SDS011;25666;44.350;9.222;2023-03-26T01:05:37;11.55;;;4.65;;
32323;SDS011;25666;44.350;9.222;2023-03-26T01:13:50;20.02;;;4.78;;
32323;SDS011;25666;44.350;9.222;2023-03-26T01:16:26;18.73;;;4.85;;
32323;SDS011;25666;44.350;9.222;2023-03-26T01:18:55;13.05;;;4.03;;
32323;SDS011;25666;44.350;9.222;2023-03-26T01:21:23;15.00;;;3.72;;
32323;SDS011;25666;44.350;9.222;2023-03-26T01:28:57;16.48;;;4.30;;
32323;SDS011;25666;44.350;9.222;2023-03-26T01:32:02;10.60;;;4.07;;
32323;SDS011;25666;44.350;9.222;2023-03-26T01:40:00;12.88;;;4.43;;
32323;SDS011;25666;44.350;9.222;2023-03-26T01:42:35;15.88;;;3.80;;
32323;SDS011;25666;44.350;9.222;2023-03-26T01:45:08;13.45;;;4.43;;
32323;SDS011;25666;44.350;9.222;2023-03-26T01:47:41;15.60;;;4.25;;
32323;SDS011;25666;44.350;9.222;2023-03-26T01:50:08;12.30;;;4.18;;
32323;SDS011;25666;44.350;9.222;2023-03-26T01:52:34;17.40;;;4.13;;
32323;SDS011;25666;44.350;9.222;2023-03-26T01:55:00;26.88;;;3.95;;
32323;SDS011;25666;44.350;9.222;2023-03-26T02:03:00;11.38;;;4.32;;
32323;SDS011;25666;44.350;9.222;2023-03-26T02:08:40;15.07;;;3.65;;
32323;SDS011;25666;44.350;9.222;2023-03-26T02:11:13;16.20;;;4.43;;
32323;SDS011;25666;44.350;9.222;2023-03-26T02:13:40;9.65;;;4.80;;
32323;SDS011;25666;44.350;9.222;2023-03-26T02:16:08;14.30;;;5.00;;
32323;SDS011;25666;44.350;9.222;2023-03-26T02:18:38;21.30;;;4.47;;
32323;SDS011;25666;44.350;9.222;2023-03-26T02:21:09;15.65;;;6.03;;
32323;SDS011;25666;44.350;9.222;2023-03-26T02:23:39;10.75;;;4.28;;
32323;SDS011;25666;44.350;9.222;2023-03-26T02:26:10;11.00;;;4.65;;
32323;SDS011;25666;44.350;9.222;2023-03-26T02:28:48;12.35;;;4.03;;
32323;SDS011;25666;44.350;9.222;2023-03-26T02:31:14;16.45;;;5.00;;
32323;SDS011;25666;44.350;9.222;2023-03-26T02:33:41;11.35;;;3.55;;
32323;SDS011;25666;44.350;9.222;2023-03-26T02:36:09;19.08;;;4.35;;
32323;SDS011;25666;44.350;9.222;2023-03-26T02:38:39;14.50;;;4.03;;
32323;SDS011;25666;44.350;9.222;2023-03-26T02:41:06;16.17;;;3.80;;
32323;SDS011;25666;44.350;9.222;2023-03-26T02:43:48;19.13;;;4.47;;
32323;SDS011;25666;44.350;9.222;2023-03-26T02:46:17;11.52;;;4.10;;
32323;SDS011;25666;44.350;9.222;2023-03-26T02:49:02;13.63;;;3.90;;
32323;SDS011;25666;44.350;9.222;2023-03-26T02:51:28;16.50;;;5.22;;
32323;SDS011;25666;44.350;9.222;2023-03-26T02:54:10;17.92;;;4.25;;
32323;SDS011;25666;44.350;9.222;2023-03-26T02:56:56;11.77;;;3.47;;
32323;SDS011;25666;44.350;9.222;2023-03-26T02:59:48;25.08;;;4.45;;
32323;SDS011;25666;44.350;9.222;2023-03-26T03:02:33;26.23;;;3.95;;
32323;SDS011;25666;44.350;9.222;2023-03-26T03:05:13;17.27;;;4.47;;
32323;SDS011;25666;44.350;9.222;2023-03-26T03:07:38;14.00;;;4.03;;
32323;SDS011;25666;44.350;9.222;2023-03-26T03:10:05;17.30;;;3.92;;
32323;SDS011;25666;44.350;9.222;2023-03-26T03:12:57;14.13;;;3.58;;
32323;SDS011;25666;44.350;9.222;2023-03-26T03:15:23;16.55;;;3.95;;
32323;SDS011;25666;44.350;9.222;2023-03-26T03:17:49;13.10;;;4.30;;
32323;SDS011;25666;44.350;9.222;2023-03-26T03:20:15;18.63;;;3.95;;
32323;SDS011;25666;44.350;9.222;2023-03-26T03:22:42;19.92;;;4.10;;
32323;SDS011;25666;44.350;9.222;2023-03-26T03:25:08;13.27;;;4.15;;
32323;SDS011;25666;44.350;9.222;2023-03-26T03:27:39;16.15;;;4.63;;
32323;SDS011;25666;44.350;9.222;2023-03-26T03:30:11;16.38;;;4.65;;
32323;SDS011;25666;44.350;9.222;2023-03-26T03:32:43;19.63;;;4.70;;
32323;SDS011;25666;44.350;9.222;2023-03-26T03:35:09;16.98;;;4.18;;
32323;SDS011;25666;44.350;9.222;2023-03-26T03:37:35;10.63;;;3.67;;
32323;SDS011;25666;44.350;9.222;2023-03-26T03:40:01;19.17;;;4.10;;
32323;SDS011;25666;44.350;9.222;2023-03-26T03:42:30;13.48;;;4.32;;
32323;SDS011;25666;44.350;9.222;2023-03-26T03:44:59;19.25;;;4.68;;
32323;SDS011;25666;44.350;9.222;2023-03-26T03:47:46;20.75;;;4.38;;
32323;SDS011;25666;44.350;9.222;2023-03-26T03:50:14;15.00;;;5.35;;
32323;SDS011;25666;44.350;9.222;2023-03-26T03:52:50;19.27;;;4.57;;
32323;SDS011;25666;44.350;9.222;2023-03-26T03:55:16;8.68;;;3.28;;
32323;SDS011;25666;44.350;9.222;2023-03-26T03:57:49;16.88;;;3.97;;
32323;SDS011;25666;44.350;9.222;2023-03-26T04:00:18;12.57;;;3.40;;
32323;SDS011;25666;44.350;9.222;2023-03-26T04:02:56;16.90;;;4.55;;
32323;SDS011;25666;44.350;9.222;2023-03-26T04:05:24;10.25;;;3.50;;
32323;SDS011;25666;44.350;9.222;2023-03-26T04:07:50;17.33;;;3.17;;
32323;SDS011;25666;44.350;9.222;2023-03-26T04:10:24;14.38;;;4.00;;
32323;SDS011;25666;44.350;9.222;2023-03-26T04:13:09;18.42;;;3.60;;
32323;SDS011;25666;44.350;9.222;2023-03-26T04:15:56;16.30;;;5.47;;
32323;SDS011;25666;44.350;9.222;2023-03-26T04:18:22;16.88;;;5.63;;
32323;SDS011;25666;44.350;9.222;2023-03-26T04:20:47;11.00;;;4.18;;
32323;SDS011;25666;44.350;9.222;2023-03-26T04:23:23;21.73;;;4.43;;
32323;SDS011;25666;44.350;9.222;2023-03-26T04:25:57;11.30;;;3.65;;
32323;SDS011;25666;44.350;9.222;2023-03-26T04:31:22;11.88;;;3.55;;
32323;SDS011;25666;44.350;9.222;2023-03-26T04:33:53;10.35;;;3.80;;
32323;SDS011;25666;44.350;9.222;2023-03-26T04:36:33;13.68;;;3.50;;
32323;SDS011;25666;44.350;9.222;2023-03-26T04:38:59;21.92;;;4.03;;
32323;SDS011;25666;44.350;9.222;2023-03-26T04:41:48;12.48;;;3.05;;
32323;SDS011;25666;44.350;9.222;2023-03-26T04:44:17;13.07;;;3.72;;
32323;SDS011;25666;44.350;9.222;2023-03-26T04:46:52;6.88;;;2.80;;
32323;SDS011;25666;44.350;9.222;2023-03-26T04:49:29;11.75;;;4.50;;
32323;SDS011;25666;44.350;9.222;2023-03-26T04:51:54;12.43;;;3.97;;
32323;SDS011;25666;44.350;9.222;2023-03-26T04:54:49;12.20;;;3.22;;
32323;SDS011;25666;44.350;9.222;2023-03-26T04:57:19;11.40;;;3.35;;
32323;SDS011;25666;44.350;9.222;2023-03-26T05:00:00;13.80;;;3.58;;
32323;SDS011;25666;44.350;9.222;2023-03-26T05:02:30;17.92;;;3.35;;
32323;SDS011;25666;44.350;9.222;2023-03-26T05:04:57;10.55;;;3.47;;
32323;SDS011;25666;44.350;9.222;2023-03-26T05:07:26;10.98;;;3.42;;
32323;SDS011;25666;44.350;9.222;2023-03-26T05:09:53;10.00;;;3.47;;
32323;SDS011;25666;44.350;9.222;2023-03-26T05:12:29;15.43;;;2.97;;
32323;SDS011;25666;44.350;9.222;2023-03-26T05:15:01;34.72;;;4.97;;
32323;SDS011;25666;44.350;9.222;2023-03-26T05:18:04;16.35;;;3.30;;
32323;SDS011;25666;44.350;9.222;2023-03-26T05:20:35;12.60;;;3.60;;
32323;SDS011;25666;44.350;9.222;2023-03-26T05:23:04;15.45;;;4.53;;
32323;SDS011;25666;44.350;9.222;2023-03-26T05:25:33;17.75;;;3.38;;
32323;SDS011;25666;44.350;9.222;2023-03-26T05:28:00;14.65;;;3.83;;
32323;SDS011;25666;44.350;9.222;2023-03-26T05:30:40;18.48;;;4.20;;
32323;SDS011;25666;44.350;9.222;2023-03-26T05:33:07;14.23;;;3.38;;
32323;SDS011;25666;44.350;9.222;2023-03-26T05:35:41;11.55;;;5.03;;
32323;SDS011;25666;44.350;9.222;2023-03-26T05:38:08;9.38;;;2.95;;
32323;SDS011;25666;44.350;9.222;2023-03-26T05:40:33;14.82;;;3.72;;
32323;SDS011;25666;44.350;9.222;2023-03-26T05:43:01;9.55;;;3.13;;
32323;SDS011;25666;44.350;9.222;2023-03-26T05:45:33;18.30;;;3.63;;
32323;SDS011;25666;44.350;9.222;2023-03-26T05:48:08;17.15;;;5.45;;
32323;SDS011;25666;44.350;9.222;2023-03-26T05:50:34;11.10;;;3.65;;
32323;SDS011;25666;44.350;9.222;2023-03-26T05:52:59;27.60;;;3.92;;
32323;SDS011;25666;44.350;9.222;2023-03-26T05:55:44;18.48;;;4.20;;
32323;SDS011;25666;44.350;9.222;2023-03-26T05:58:31;12.13;;;3.58;;
32323;SDS011;25666;44.350;9.222;2023-03-26T06:01:24;20.52;;;4.03;;
32323;SDS011;25666;44.350;9.222;2023-03-26T06:04:18;24.58;;;4.38;;
32323;SDS011;25666;44.350;9.222;2023-03-26T06:07:04;15.50;;;3.17;;
32323;SDS011;25666;44.350;9.222;2023-03-26T06:09:34;17.20;;;3.95;;
32323;SDS011;25666;44.350;9.222;2023-03-26T06:12:03;13.70;;;4.00;;
32323;SDS011;25666;44.350;9.222;2023-03-26T06:14:33;19.00;;;3.47;;
32323;SDS011;25666;44.350;9.222;2023-03-26T06:17:09;16.42;;;3.92;;
32323;SDS011;25666;44.350;9.222;2023-03-26T06:19:54;16.67;;;3.35;;
32323;SDS011;25666;44.350;9.222;2023-03-26T06:22:27;14.48;;;3.50;;
32323;SDS011;25666;44.350;9.222;2023-03-26T06:25:11;15.43;;;3.92;;
32323;SDS011;25666;44.350;9.222;2023-03-26T06:27:57;17.17;;;3.88;;
32323;SDS011;25666;44.350;9.222;2023-03-26T06:30:51;12.18;;;2.95;;
32323;SDS011;25666;44.350;9.222;2023-03-26T06:33:35;18.02;;;3.75;;
32323;SDS011;25666;44.350;9.222;2023-03-26T06:36:00;21.00;;;3.85;;
32323;SDS011;25666;44.350;9.222;2023-03-26T06:38:26;20.08;;;3.80;;
32323;SDS011;25666;44.350;9.222;2023-03-26T06:40:52;17.85;;;4.55;;
32323;SDS011;25666;44.350;9.222;2023-03-26T06:43:20;13.68;;;4.40;;
32323;SDS011;25666;44.350;9.222;2023-03-26T06:46:02;20.03;;;5.50;;
32323;SDS011;25666;44.350;9.222;2023-03-26T06:48:37;21.92;;;6.47;;
32323;SDS011;25666;44.350;9.222;2023-03-26T06:51:21;17.15;;;4.68;;
32323;SDS011;25666;44.350;9.222;2023-03-26T06:54:05;11.93;;;3.95;;
32323;SDS011;25666;44.350;9.222;2023-03-26T06:56:52;19.30;;;3.90;;
32323;SDS011;25666;44.350;9.222;2023-03-26T06:59:20;15.15;;;3.67;;
32323;SDS011;25666;44.350;9.222;2023-03-26T07:02:04;17.30;;;4.15;;
32323;SDS011;25666;44.350;9.222;2023-03-26T07:04:48;7.57;;;3.20;;
32323;SDS011;25666;44.350;9.222;2023-03-26T07:07:32;19.35;;;3.75;;
32323;SDS011;25666;44.350;9.222;2023-03-26T07:10:16;15.93;;;3.67;;
32323;SDS011;25666;44.350;9.222;2023-03-26T07:13:00;22.27;;;3.90;;
32323;SDS011;25666;44.350;9.222;2023-03-26T07:15:54;24.63;;;5.75;;
32323;SDS011;25666;44.350;9.222;2023-03-26T07:18:19;22.27;;;4.75;;
32323;SDS011;25666;44.350;9.222;2023-03-26T07:20:46;16.70;;;3.97;;
32323;SDS011;25666;44.350;9.222;2023-03-26T07:23:12;17.27;;;4.47;;
32323;SDS011;25666;44.350;9.222;2023-03-26T07:25:45;28.65;;;6.63;;
32323;SDS011;25666;44.350;9.222;2023-03-26T07:31:23;22.35;;;4.00;;
32323;SDS011;25666;44.350;9.222;2023-03-26T07:34:30;24.52;;;5.13;;
32323;SDS011;25666;44.350;9.222;2023-03-26T07:40:33;24.35;;;3.55;;
32323;SDS011;25666;44.350;9.222;2023-03-26T07:46:45;13.90;;;4.15;;
32323;SDS011;25666;44.350;9.222;2023-03-26T07:49:45;23.63;;;5.55;;
32323;SDS011;25666;44.350;9.222;2023-03-26T07:52:20;17.95;;;4.45;;
32323;SDS011;25666;44.350;9.222;2023-03-26T07:55:07;13.80;;;4.00;;
32323;SDS011;25666;44.350;9.222;2023-03-26T07:58:17;26.92;;;4.80;;
32323;SDS011;25666;44.350;9.222;2023-03-26T08:04:20;24.85;;;4.68;;
32323;SDS011;25666;44.350;9.222;2023-03-26T08:10:21;19.70;;;5.32;;
32323;SDS011;25666;44.350;9.222;2023-03-26T08:13:10;18.40;;;4.70;;
32323;SDS011;25666;44.350;9.222;2023-03-26T08:21:22;26.38;;;5.55;;
32323;SDS011;25666;44.350;9.222;2023-03-26T08:23:59;45.13;;;5.75;;
32323;SDS011;25666;44.350;9.222;2023-03-26T08:26:57;31.92;;;4.57;;
32323;SDS011;25666;44.350;9.222;2023-03-26T08:29:36;48.30;;;7.50;;
32323;SDS011;25666;44.350;9.222;2023-03-26T08:32:27;38.05;;;5.25;;
32323;SDS011;25666;44.350;9.222;2023-03-26T08:34:53;40.78;;;5.25;;
32323;SDS011;25666;44.350;9.222;2023-03-26T08:37:21;33.22;;;5.57;;
32323;SDS011;25666;44.350;9.222;2023-03-26T08:39:47;35.78;;;6.75;;
32323;SDS011;25666;44.350;9.222;2023-03-26T09:04:34;22.08;;;3.50;;
32323;SDS011;25666;44.350;9.222;2023-03-26T09:24:11;21.33;;;3.70;;
32323;SDS011;25666;44.350;9.222;2023-03-26T09:36:10;21.88;;;3.00;;
32323;SDS011;25666;44.350;9.222;2023-03-26T09:41:00;7.55;;;2.85;;
32323;SDS011;25666;44.350;9.222;2023-03-26T09:43:41;19.10;;;2.80;;
32323;SDS011;25666;44.350;9.222;2023-03-26T09:46:26;14.60;;;3.30;;
32323;SDS011;25666;44.350;9.222;2023-03-26T09:49:13;14.32;;;3.17;;
32323;SDS011;25666;44.350;9.222;2023-03-26T10:00:41;13.23;;;3.53;;
32323;SDS011;25666;44.350;9.222;2023-03-26T10:09:02;22.88;;;3.78;;
32323;SDS011;25666;44.350;9.222;2023-03-26T10:14:33;24.85;;;5.57;;
32323;SDS011;25666;44.350;9.222;2023-03-26T10:28:59;18.40;;;4.40;;
32323;SDS011;25666;44.350;9.222;2023-03-26T10:31:41;18.25;;;3.78;;
32323;SDS011;25666;44.350;9.222;2023-03-26T10:37:56;23.52;;;3.65;;
32323;SDS011;25666;44.350;9.222;2023-03-26T10:40:14;16.52;;;3.80;;
32323;SDS011;25666;44.350;9.222;2023-03-26T10:45:57;13.90;;;4.00;;
32323;SDS011;25666;44.350;9.222;2023-03-26T10:48:58;19.20;;;3.10;;
32323;SDS011;25666;44.350;9.222;2023-03-26T10:51:49;17.00;;;4.40;;
32323;SDS011;25666;44.350;9.222;2023-03-26T11:00:15;21.52;;;4.45;;
32323;SDS011;25666;44.350;9.222;2023-03-26T11:02:43;19.10;;;3.03;;
32323;SDS011;25666;44.350;9.222;2023-03-26T11:10:48;15.98;;;4.15;;
32323;SDS011;25666;44.350;9.222;2023-03-26T11:13:24;15.70;;;3.25;;
32323;SDS011;25666;44.350;9.222;2023-03-26T11:18:51;25.73;;;5.00;;
32323;SDS011;25666;44.350;9.222;2023-03-26T11:21:33;19.80;;;3.17;;
32323;SDS011;25666;44.350;9.222;2023-03-26T11:27:37;20.83;;;4.30;;
32323;SDS011;25666;44.350;9.222;2023-03-26T11:33:21;17.95;;;3.50;;
32323;SDS011;25666;44.350;9.222;2023-03-26T11:35:51;19.83;;;3.30;;
32323;SDS011;25666;44.350;9.222;2023-03-26T11:40:55;17.00;;;3.95;;
32323;SDS011;25666;44.350;9.222;2023-03-26T11:43:51;25.00;;;3.95;;
32323;SDS011;25666;44.350;9.222;2023-03-26T11:46:23;27.48;;;4.53;;
32323;SDS011;25666;44.350;9.222;2023-03-26T11:49:00;23.77;;;4.05;;
32323;SDS011;25666;44.350;9.222;2023-03-26T11:51:33;20.52;;;5.00;;
32323;SDS011;25666;44.350;9.222;2023-03-26T11:54:02;22.98;;;3.33;;
32323;SDS011;25666;44.350;9.222;2023-03-26T11:56:32;18.67;;;3.97;;
32323;SDS011;25666;44.350;9.222;2023-03-26T11:59:13;42.05;;;6.00;;
32323;SDS011;25666;44.350;9.222;2023-03-26T12:01:46;26.30;;;4.68;;
32323;SDS011;25666;44.350;9.222;2023-03-26T12:04:38;27.23;;;4.65;;
32323;SDS011;25666;44.350;9.222;2023-03-26T12:07:14;31.48;;;5.45;;
32323;SDS011;25666;44.350;9.222;2023-03-26T12:12:28;31.20;;;5.32;;
32323;SDS011;25666;44.350;9.222;2023-03-26T12:14:57;28.02;;;4.72;;
32323;SDS011;25666;44.350;9.222;2023-03-26T12:17:24;23.80;;;3.90;;
32323;SDS011;25666;44.350;9.222;2023-03-26T12:19:54;22.53;;;5.53;;
32323;SDS011;25666;44.350;9.222;2023-03-26T12:22:38;17.85;;;3.30;;
32323;SDS011;25666;44.350;9.222;2023-03-26T12:27:39;32.08;;;5.03;;
32323;SDS011;25666;44.350;9.222;2023-03-26T12:30:18;25.80;;;5.28;;
32323;SDS011;25666;44.350;9.222;2023-03-26T12:32:49;30.10;;;4.70;;
32323;SDS011;25666;44.350;9.222;2023-03-26T12:35:18;18.85;;;4.30;;
32323;SDS011;25666;44.350;9.222;2023-03-26T12:37:51;33.40;;;5.82;;
32323;SDS011;25666;44.350;9.222;2023-03-26T12:42:53;24.88;;;6.88;;
32323;SDS011;25666;44.350;9.222;2023-03-26T12:45:22;24.55;;;4.45;;
32323;SDS011;25666;44.350;9.222;2023-03-26T12:47:52;22.70;;;3.60;;
32323;SDS011;25666;44.350;9.222;2023-03-26T12:50:19;22.25;;;5.07;;
32323;SDS011;25666;44.350;9.222;2023-03-26T12:52:55;32.38;;;5.13;;
32323;SDS011;25666;44.350;9.222;2023-03-26T13:03:58;21.25;;;5.22;;
32323;SDS011;25666;44.350;9.222;2023-03-26T13:06:43;32.75;;;4.57;;
32323;SDS011;25666;44.350;9.222;2023-03-26T13:11:52;29.60;;;6.22;;
32323;SDS011;25666;44.350;9.222;2023-03-26T13:17:07;33.75;;;5.18;;
32323;SDS011;25666;44.350;9.222;2023-03-26T13:23:01;31.77;;;4.57;;
32323;SDS011;25666;44.350;9.222;2023-03-26T13:25:53;20.58;;;4.97;;
32323;SDS011;25666;44.350;9.222;2023-03-26T13:31:18;15.82;;;4.82;;
32323;SDS011;25666;44.350;9.222;2023-03-26T13:33:55;18.90;;;4.22;;
32323;SDS011;25666;44.350;9.222;2023-03-26T13:36:41;23.45;;;4.68;;
32323;SDS011;25666;44.350;9.222;2023-03-26T13:45:03;29.20;;;6.22;;
32323;SDS011;25666;44.350;9.222;2023-03-26T13:47:43;25.75;;;5.82;;
32323;SDS011;25666;44.350;9.222;2023-03-26T13:50:35;32.72;;;5.25;;
32323;SDS011;25666;44.350;9.222;2023-03-26T13:53:18;30.38;;;5.57;;
32323;SDS011;25666;44.350;9.222;2023-03-26T13:55:50;35.20;;;5.97;;
32323;SDS011;25666;44.350;9.222;2023-03-26T13:58:35;39.13;;;6.68;;
32323;SDS011;25666;44.350;9.222;2023-03-26T14:01:17;31.52;;;6.60;;
32323;SDS011;25666;44.350;9.222;2023-03-26T14:03:51;30.70;;;6.93;;
32323;SDS011;25666;44.350;9.222;2023-03-26T14:06:39;40.60;;;5.60;;
32323;SDS011;25666;44.350;9.222;2023-03-26T14:12:19;25.08;;;7.03;;
32323;SDS011;25666;44.350;9.222;2023-03-26T14:15:14;27.60;;;6.25;;
32323;SDS011;25666;44.350;9.222;2023-03-26T14:26:25;26.17;;;5.82;;
32323;SDS011;25666;44.350;9.222;2023-03-26T14:37:27;24.60;;;6.40;;
32323;SDS011;25666;44.350;9.222;2023-03-26T14:40:27;25.30;;;6.47;;
32323;SDS011;25666;44.350;9.222;2023-03-26T14:54:36;21.80;;;6.22;;
32323;SDS011;25666;44.350;9.222;2023-03-26T15:11:56;39.13;;;7.63;;
32323;SDS011;25666;44.350;9.222;2023-03-26T15:20:47;33.88;;;7.70;;
32323;SDS011;25666;44.350;9.222;2023-03-26T15:26:39;24.00;;;6.13;;
32323;SDS011;25666;44.350;9.222;2023-03-26T15:32:25;30.35;;;6.90;;
32323;SDS011;25666;44.350;9.222;2023-03-26T15:43:25;23.23;;;6.97;;
32323;SDS011;25666;44.350;9.222;2023-03-26T16:02:38;28.75;;;4.20;;
32323;SDS011;25666;44.350;9.222;2023-03-26T16:08:27;19.08;;;5.68;;
32323;SDS011;25666;44.350;9.222;2023-03-26T16:11:11;13.25;;;3.92;;
32323;SDS011;25666;44.350;9.222;2023-03-26T16:13:41;21.63;;;4.53;;
32323;SDS011;25666;44.350;9.222;2023-03-26T16:18:49;36.72;;;5.45;;
32323;SDS011;25666;44.350;9.222;2023-03-26T16:23:57;31.63;;;5.43;;
32323;SDS011;25666;44.350;9.222;2023-03-26T16:40:47;25.83;;;7.40;;
32323;SDS011;25666;44.350;9.222;2023-03-26T16:45:33;48.55;;;8.07;;
32323;SDS011;25666;44.350;9.222;2023-03-26T16:53:56;62.70;;;13.15;;
32323;SDS011;25666;44.350;9.222;2023-03-26T17:02:30;35.65;;;8.98;;
32323;SDS011;25666;44.350;9.222;2023-03-26T17:07:56;49.85;;;11.68;;
32323;SDS011;25666;44.350;9.222;2023-03-26T17:10:32;37.05;;;9.13;;
32323;SDS011;25666;44.350;9.222;2023-03-26T17:29:12;25.75;;;9.02;;
32323;SDS011;25666;44.350;9.222;2023-03-26T17:31:42;35.50;;;7.28;;
32323;SDS011;25666;44.350;9.222;2023-03-26T17:37:40;34.20;;;9.35;;
32323;SDS011;25666;44.350;9.222;2023-03-26T17:40:25;42.58;;;8.45;;
32323;SDS011;25666;44.350;9.222;2023-03-26T17:43:08;50.72;;;9.52;;
32323;SDS011;25666;44.350;9.222;2023-03-26T17:45:36;36.88;;;9.15;;
32323;SDS011;25666;44.350;9.222;2023-03-26T17:48:17;42.38;;;9.40;;
32323;SDS011;25666;44.350;9.222;2023-03-26T17:51:00;29.35;;;8.38;;
32323;SDS011;25666;44.350;9.222;2023-03-26T17:53:30;36.13;;;8.77;;
32323;SDS011;25666;44.350;9.222;2023-03-26T17:56:00;41.25;;;10.77;;
32323;SDS011;25666;44.350;9.222;2023-03-26T17:58:40;28.58;;;10.02;;
32323;SDS011;25666;44.350;9.222;2023-03-26T18:03:41;30.75;;;9.13;;
32323;SDS011;25666;44.350;9.222;2023-03-26T18:06:17;32.95;;;9.63;;
32323;SDS011;25666;44.350;9.222;2023-03-26T18:11:57;46.22;;;8.98;;
32323;SDS011;25666;44.350;9.222;2023-03-26T18:17:26;32.17;;;8.80;;
32323;SDS011;25666;44.350;9.222;2023-03-26T18:20:03;30.10;;;8.88;;
32323;SDS011;25666;44.350;9.222;2023-03-26T18:22:30;23.90;;;7.85;;
32323;SDS011;25666;44.350;9.222;2023-03-26T18:24:58;32.55;;;9.13;;
32323;SDS011;25666;44.350;9.222;2023-03-26T18:27:32;28.58;;;8.07;;
32323;SDS011;25666;44.350;9.222;2023-03-26T18:30:01;31.73;;;8.30;;
32323;SDS011;25666;44.350;9.222;2023-03-26T18:32:37;25.52;;;6.63;;
32323;SDS011;25666;44.350;9.222;2023-03-26T18:35:15;21.80;;;7.20;;
32323;SDS011;25666;44.350;9.222;2023-03-26T18:37:44;24.38;;;7.20;;
32323;SDS011;25666;44.350;9.222;2023-03-26T18:40:17;33.63;;;7.78;;
32323;SDS011;25666;44.350;9.222;2023-03-26T18:47:48;35.08;;;9.50;;
32323;SDS011;25666;44.350;9.222;2023-03-26T18:50:19;32.55;;;9.38;;
32323;SDS011;25666;44.350;9.222;2023-03-26T18:52:48;26.53;;;10.03;;
32323;SDS011;25666;44.350;9.222;2023-03-26T18:55:15;32.95;;;10.88;;
32323;SDS011;25666;44.350;9.222;2023-03-26T18:57:41;44.78;;;12.27;;
32323;SDS011;25666;44.350;9.222;2023-03-26T19:00:10;20.67;;;9.77;;
32323;SDS011;25666;44.350;9.222;2023-03-26T19:02:45;40.65;;;11.70;;
32323;SDS011;25666;44.350;9.222;2023-03-26T19:05:14;40.35;;;12.75;;
32323;SDS011;25666;44.350;9.222;2023-03-26T19:07:41;28.38;;;10.13;;
32323;SDS011;25666;44.350;9.222;2023-03-26T19:10:12;34.45;;;13.60;;
32323;SDS011;25666;44.350;9.222;2023-03-26T19:12:43;36.25;;;13.23;;
32323;SDS011;25666;44.350;9.222;2023-03-26T19:15:12;44.10;;;12.23;;
32323;SDS011;25666;44.350;9.222;2023-03-26T19:17:45;36.85;;;11.70;;
32323;SDS011;25666;44.350;9.222;2023-03-26T19:20:23;27.50;;;9.93;;
32323;SDS011;25666;44.350;9.222;2023-03-26T19:22:52;18.30;;;8.00;;
32323;SDS011;25666;44.350;9.222;2023-03-26T19:25:24;16.55;;;6.13;;
32323;SDS011;25666;44.350;9.222;2023-03-26T19:27:52;27.83;;;7.93;;
32323;SDS011;25666;44.350;9.222;2023-03-26T19:30:23;42.33;;;9.20;;
32323;SDS011;25666;44.350;9.222;2023-03-26T19:33:03;24.35;;;8.10;;
32323;SDS011;25666;44.350;9.222;2023-03-26T19:35:36;32.45;;;10.50;;
32323;SDS011;25666;44.350;9.222;2023-03-26T19:38:11;29.10;;;11.60;;
32323;SDS011;25666;44.350;9.222;2023-03-26T19:40:48;34.58;;;11.45;;
32323;SDS011;25666;44.350;9.222;2023-03-26T19:43:16;35.25;;;12.23;;
32323;SDS011;25666;44.350;9.222;2023-03-26T19:45:42;27.60;;;9.88;;
32323;SDS011;25666;44.350;9.222;2023-03-26T19:48:08;37.90;;;10.40;;
32323;SDS011;25666;44.350;9.222;2023-03-26T19:50:39;22.67;;;9.10;;
32323;SDS011;25666;44.350;9.222;2023-03-26T19:53:18;30.00;;;10.03;;
32323;SDS011;25666;44.350;9.222;2023-03-26T19:56:30;29.40;;;9.35;;
32323;SDS011;25666;44.350;9.222;2023-03-26T19:58:39;29.08;;;10.55;;
32323;SDS011;25666;44.350;9.222;2023-03-26T20:01:12;21.83;;;7.95;;
32323;SDS011;25666;44.350;9.222;2023-03-26T20:03:40;29.20;;;8.07;;
32323;SDS011;25666;44.350;9.222;2023-03-26T20:06:10;24.17;;;8.80;;
32323;SDS011;25666;44.350;9.222;2023-03-26T20:08:36;20.20;;;10.10;;
32323;SDS011;25666;44.350;9.222;2023-03-26T20:11:04;26.02;;;9.57;;
32323;SDS011;25666;44.350;9.222;2023-03-26T20:13:37;19.35;;;8.10;;
32323;SDS011;25666;44.350;9.222;2023-03-26T20:16:05;27.48;;;8.18;;
32323;SDS011;25666;44.350;9.222;2023-03-26T20:18:31;19.30;;;8.25;;
32323;SDS011;25666;44.350;9.222;2023-03-26T20:20:57;22.48;;;8.13;;
32323;SDS011;25666;44.350;9.222;2023-03-26T20:23:22;26.65;;;7.93;;
32323;SDS011;25666;44.350;9.222;2023-03-26T20:25:52;25.15;;;9.18;;
32323;SDS011;25666;44.350;9.222;2023-03-26T20:28:19;20.95;;;7.85;;
32323;SDS011;25666;44.350;9.222;2023-03-26T20:30:48;48.00;;;7.93;;
32323;SDS011;25666;44.350;9.222;2023-03-26T20:33:15;23.23;;;8.15;;
32323;SDS011;25666;44.350;9.222;2023-03-26T20:35:44;22.52;;;7.47;;
32323;SDS011;25666;44.350;9.222;2023-03-26T20:38:10;17.48;;;7.43;;
32323;SDS011;25666;44.350;9.222;2023-03-26T20:40:36;17.30;;;7.65;;
32323;SDS011;25666;44.350;9.222;2023-03-26T20:43:02;18.27;;;6.75;;
32323;SDS011;25666;44.350;9.222;2023-03-26T20:45:28;18.77;;;7.40;;
32323;SDS011;25666;44.350;9.222;2023-03-26T20:47:53;20.92;;;7.85;;
32323;SDS011;25666;44.350;9.222;2023-03-26T20:50:20;16.90;;;6.90;;
32323;SDS011;25666;44.350;9.222;2023-03-26T20:52:47;24.27;;;7.30;;
32323;SDS011;25666;44.350;9.222;2023-03-26T20:55:17;23.58;;;7.60;;
32323;SDS011;25666;44.350;9.222;2023-03-26T20:57:45;15.67;;;7.60;;
32323;SDS011;25666;44.350;9.222;2023-03-26T21:00:12;24.58;;;8.25;;
32323;SDS011;25666;44.350;9.222;2023-03-26T21:02:51;11.25;;;4.70;;
32323;SDS011;25666;44.350;9.222;2023-03-26T21:05:19;10.68;;;5.95;;